sensor_id;sensor_type;location;lat;lon;timestamp;pressure;altitude;pressure_sealevel;temperature;humidity
30338;BME280;17143;51.888;5.408;2023-07-28T00:05:21;100289.31;;;19.02;100.00
30338;BME280;17143;51.888;5.408;2023-07-28T00:20:23;100291.06;;;19.00;100.00
30338;BME280;17143;51.888;5.408;2023-07-28T00:35:25;100291.97;;;19.00;100.00
30338;BME280;17143;51.888;5.408;2023-07-28T00:50:29;100299.03;;;19.03;100.00
30338;BME280;17143;51.888;5.408;2023-07-28T01:05:39;100294.59;;;19.02;100.00
30338;BME280;17143;51.888;5.408;2023-07-28T01:20:45;100303.41;;;19.01;100.00
30338;BME280;17143;51.888;5.408;2023-07-28T01:35:48;100301.66;;;19.03;100.00
30338;BME280;17143;51.888;5.408;2023-07-28T01:50:50;100301.66;;;19.03;100.00
30338;BME280;17143;51.888;5.408;2023-07-28T02:05:52;100292.84;;;19.04;100.00
30338;BME280;17143;51.888;5.408;2023-07-28T02:20:54;100303.44;;;19.07;100.00
30338;BME280;17143;51.888;5.408;2023-07-28T02:35:57;100292.88;;;19.07;100.00
30338;BME280;17143;51.888;5.408;2023-07-28T02:50:59;100298.16;;;19.07;100.00
30338;BME280;17143;51.888;5.408;2023-07-28T03:06:01;100312.25;;;19.06;100.00
30338;BME280;17143;51.888;5.408;2023-07-28T03:21:03;100322.88;;;19.09;100.00
30338;BME280;17143;51.888;5.408;2023-07-28T03:36:05;100329.00;;;19.09;100.00
30338;BME280;17143;51.888;5.408;2023-07-28T03:51:09;100340.47;;;19.10;100.00
30338;BME280;17143;51.888;5.408;2023-07-28T04:06:11;100342.25;;;19.11;100.00
30338;BME280;17143;51.888;5.408;2023-07-28T04:21:13;100340.41;;;19.07;100.00
30338;BME280;17143;51.888;5.408;2023-07-28T04:36:15;100354.56;;;19.09;100.00
30338;BME280;17143;51.888;5.408;2023-07-28T04:51:18;100364.25;;;19.11;100.00
30338;BME280;17143;51.888;5.408;2023-07-28T05:06:43;100361.59;;;19.10;100.00
30338;BME280;17143;51.888;5.408;2023-07-28T05:21:45;100371.31;;;19.12;100.00
30338;BME280;17143;51.888;5.408;2023-07-28T05:36:49;100388.13;;;19.19;100.00
30338;BME280;17143;51.888;5.408;2023-07-28T05:51:52;100389.25;;;19.37;100.00
30338;BME280;17143;51.888;5.408;2023-07-28T06:06:54;100408.69;;;19.44;100.00
30338;BME280;17143;51.888;5.408;2023-07-28T06:21:57;100425.47;;;19.49;100.00
30338;BME280;17143;51.888;5.408;2023-07-28T06:36:59;100435.22;;;19.55;100.00
30338;BME280;17143;51.888;5.408;2023-07-28T06:52:01;100453.81;;;19.62;100.00
30338;BME280;17143;51.888;5.408;2023-07-28T07:07:03;100465.44;;;19.76;100.00
30338;BME280;17143;51.888;5.408;2023-07-28T07:22:06;100471.81;;;19.96;100.00
30338;BME280;17143;51.888;5.408;2023-07-28T07:37:09;100491.28;;;20.04;100.00
30338;BME280;17143;51.888;5.408;2023-07-28T07:52:11;100504.66;;;20.18;100.00
30338;BME280;17143;51.888;5.408;2023-07-28T08:07:13;100521.59;;;20.34;100.00
30338;BME280;17143;51.888;5.408;2023-07-28T08:22:15;100529.69;;;20.49;100.00
30338;BME280;17143;51.888;5.408;2023-07-28T08:37:17;100531.81;;;20.92;100.00
30338;BME280;17143;51.888;5.408;2023-07-28T08:52:19;100543.78;;;21.71;100.00
30338;BME280;17143;51.888;5.408;2023-07-28T09:07:21;100550.75;;;21.53;100.00
30338;BME280;17143;51.888;5.408;2023-07-28T09:22:23;100564.81;;;21.34;100.00
30338;BME280;17143;51.888;5.408;2023-07-28T09:37:25;100566.78;;;21.71;100.00
30338;BME280;17143;51.888;5.408;2023-07-28T09:52:32;100574.00;;;22.08;100.00
30338;BME280;17143;51.888;5.408;2023-07-28T10:07:36;100570.56;;;23.30;100.00
30338;BME280;17143;51.888;5.408;2023-07-28T10:22:44;100572.34;;;23.31;100.00
30338;BME280;17143;51.888;5.408;2023-07-28T10:37:47;100577.66;;;23.52;100.00
30338;BME280;17143;51.888;5.408;2023-07-28T10:52:49;100577.53;;;23.86;100.00
30338;BME280;17143;51.888;5.408;2023-07-28T11:07:53;100591.63;;;24.15;100.00
30338;BME280;17143;51.888;5.408;2023-07-28T11:22:57;100584.31;;;24.53;100.00
30338;BME280;17143;51.888;5.408;2023-07-28T11:38:00;100581.94;;;25.28;100.00
30338;BME280;17143;51.888;5.408;2023-07-28T11:53:02;100578.34;;;25.32;99.54
30338;BME280;17143;51.888;5.408;2023-07-28T12:08:04;100587.91;;;26.29;93.06
30338;BME280;17143;51.888;5.408;2023-07-28T12:23:07;100594.66;;;25.88;91.62
30338;BME280;17143;51.888;5.408;2023-07-28T12:38:09;100578.41;;;27.23;85.76
30338;BME280;17143;51.888;5.408;2023-07-28T12:53:11;100583.81;;;26.66;86.16
30338;BME280;17143;51.888;5.408;2023-07-28T13:08:13;100580.75;;;27.41;84.29
30338;BME280;17143;51.888;5.408;2023-07-28T13:23:15;100582.53;;;27.88;80.44
30338;BME280;17143;51.888;5.408;2023-07-28T13:38:17;100573.28;;;27.59;77.92
30338;BME280;17143;51.888;5.408;2023-07-28T13:53:19;100571.47;;;27.61;77.30
30338;BME280;17143;51.888;5.408;2023-07-28T14:08:21;100560.28;;;27.40;75.85
30338;BME280;17143;51.888;5.408;2023-07-28T14:23:24;100587.03;;;26.28;82.71
30338;BME280;17143;51.888;5.408;2023-07-28T14:38:27;100589.88;;;26.77;82.41
30338;BME280;17143;51.888;5.408;2023-07-28T14:53:30;100598.09;;;26.62;80.70
30338;BME280;17143;51.888;5.408;2023-07-28T15:08:32;100596.00;;;26.23;84.39
30338;BME280;17143;51.888;5.408;2023-07-28T15:23:34;100591.38;;;26.37;82.69
30338;BME280;17143;51.888;5.408;2023-07-28T15:38:37;100591.59;;;26.19;83.28
30338;BME280;17143;51.888;5.408;2023-07-28T15:53:39;100588.28;;;25.98;84.41
30338;BME280;17143;51.888;5.408;2023-07-28T16:08:41;100599.81;;;25.20;87.47
30338;BME280;17143;51.888;5.408;2023-07-28T16:23:43;100598.53;;;24.49;93.77
30338;BME280;17143;51.888;5.408;2023-07-28T16:38:45;100589.66;;;24.47;96.37
30338;BME280;17143;51.888;5.408;2023-07-28T16:53:47;100592.34;;;24.44;94.82
30338;BME280;17143;51.888;5.408;2023-07-28T17:08:49;100578.09;;;24.50;94.16
30338;BME280;17143;51.888;5.408;2023-07-28T17:23:51;100580.78;;;24.51;94.55
30338;BME280;17143;51.888;5.408;2023-07-28T17:38:54;100583.50;;;24.41;94.11
30338;BME280;17143;51.888;5.408;2023-07-28T17:53:56;100582.75;;;24.16;94.79
30338;BME280;17143;51.888;5.408;2023-07-28T18:08:58;100569.56;;;23.87;94.66
30338;BME280;17143;51.888;5.408;2023-07-28T18:24:01;100569.59;;;23.77;95.73
30338;BME280;17143;51.888;5.408;2023-07-28T18:39:03;100568.78;;;23.56;96.73
30338;BME280;17143;51.888;5.408;2023-07-28T18:54:05;100575.88;;;23.56;97.33
30338;BME280;17143;51.888;5.408;2023-07-28T19:09:08;100592.75;;;23.50;98.72
30338;BME280;17143;51.888;5.408;2023-07-28T19:39:12;100584.78;;;23.26;100.00
30338;BME280;17143;51.888;5.408;2023-07-28T19:54:14;100602.50;;;23.12;100.00
30338;BME280;17143;51.888;5.408;2023-07-28T20:09:16;100596.31;;;22.99;100.00
30338;BME280;17143;51.888;5.408;2023-07-28T20:24:18;100606.06;;;22.69;100.00
30338;BME280;17143;51.888;5.408;2023-07-28T20:39:21;100600.66;;;22.54;100.00
30338;BME280;17143;51.888;5.408;2023-07-28T20:54:25;100606.81;;;22.33;100.00
30338;BME280;17143;51.888;5.408;2023-07-28T21:09:27;100591.75;;;22.15;100.00
30338;BME280;17143;51.888;5.408;2023-07-28T21:24:29;100606.72;;;22.01;100.00
30338;BME280;17143;51.888;5.408;2023-07-28T21:39:31;100601.22;;;21.69;100.00
30338;BME280;17143;51.888;5.408;2023-07-28T21:54:33;100602.84;;;21.42;100.00
30338;BME280;17143;51.888;5.408;2023-07-28T22:09:35;100593.06;;;21.29;100.00
30338;BME280;17143;51.888;5.408;2023-07-28T22:24:38;100591.13;;;21.09;100.00
30338;BME280;17143;51.888;5.408;2023-07-28T22:39:40;100589.19;;;20.90;100.00
30338;BME280;17143;51.888;5.408;2023-07-28T22:54:42;100574.91;;;20.70;100.00
30338;BME280;17143;51.888;5.408;2023-07-28T23:09:44;100570.28;;;20.51;100.00
30338;BME280;17143;51.888;5.408;2023-07-28T23:24:46;100577.16;;;20.32;100.00
30338;BME280;17143;51.888;5.408;2023-07-28T23:39:48;100578.72;;;20.18;100.00
30338;BME280;17143;51.888;5.408;2023-07-28T23:54:50;100551.25;;;20.05;100.00
